UWSG 090830Z 32005MPS CAVOK M05/M08 Q1034 R26/810165 NOSIG RMK QFE773/1030
QNH:(hPa/inHg/mmHg)1034 / 30.53 / 776
QFE:(hPa/inHg/mmHg)1033 / 30.50 / 775
Temperature-5
Dew Point-8
Visibility> 10000
WeatherCAVOK
Cloud Cover
Transition Altitude3000 ft.
Transition LevelFL40
SQUAWK